Portada
METAR-TAF:

METAR-TAF

Aeroports :

Hazleton, Pennsilvània, Estats Units d'Amèrica

latitud: 40-59-12N, longitud: 075-59-42W, altitud: 489 m

Observació

L'informe es va fer fa 22 minuts, a les 07:58 UTC
Vent calma
Temperatura 22°C
Humitat 88%
Pressió 1011 hPa
Visibilitat: 11.3 km
Cel cobert a una alçada de 900 ft
pluja

METAR: KHZL 250758Z AUTO 00000KT 7SM -RA OVC009 22/20 A2985 RMK AO2 LTG DSNT E AND S

Hora: 04:20 (08:20 UTC)


TAF: manca

Observacions i pronòstics meteorològics de més de 4000 aeroports (METAR i TAF).

Les estacions disponibles són els punts grocs i vermells al mapa.

Posi el ratolí al punt desitjat per veure el nom de l'estació.

Feu clic per veure les observacions i els pronòstics meteorològics.

Per canviar el mapa: feu clic els botons verds amb una creu de color negre per apropar; al botó verd amb un guió per allunyar la imatge; o en les fletxes verdes per a mapes adjacents.


METAR-TAF: